Terminal Aerodrome Forecast
Issued by NWS San Angelo, TX

Home | Current Version | Previous Version | Text Only | Print | Product List | Glossary On
Versions: 1 2 3 4 5 6 7 8 9 10 11 12 13 14 15 16 17 18 19 20 21 22 23 24
000
FTUS44 KSJT 261411 AAC
TAFSJT
TAF AMD
KSJT 261411Z 2614/2712 12005KT P6SM SCT050 BKN120
     FM261600 09008KT P6SM BKN050
     FM262000 08008KT P6SM VCTS BKN050CB
     FM270300 14005KT P6SM BKN050=

USA.gov is the U.S. government's official web portal to all federal, state and local government web resources and services.